createdAt,value
2018-06-14T00:00:32.349Z,7.37
2018-06-14T00:03:00.340Z,7.50
2018-06-14T00:05:28.464Z,7.50
2018-06-14T00:07:56.539Z,7.67
2018-06-14T00:10:24.581Z,7.73
2018-06-14T00:12:52.620Z,8.77
2018-06-14T00:15:20.629Z,8.03
2018-06-14T00:17:48.623Z,8.47
2018-06-14T00:20:16.722Z,9.07
2018-06-14T00:22:44.697Z,9.53
2018-06-14T00:25:12.912Z,9.07
2018-06-14T00:27:40.944Z,9.63
2018-06-14T00:30:08.949Z,9.73
2018-06-14T00:32:37.043Z,10.00
2018-06-14T00:35:05.062Z,9.93
2018-06-14T00:37:33.184Z,8.50
2018-06-14T00:40:01.150Z,10.37
2018-06-14T00:42:29.195Z,10.47
2018-06-14T00:44:57.193Z,10.07
2018-06-14T00:47:25.188Z,9.13
2018-06-14T00:49:53.164Z,9.97
2018-06-14T00:52:21.165Z,9.83
2018-06-14T00:54:49.240Z,10.10
2018-06-14T00:57:24.534Z,9.23
2018-06-14T00:59:52.531Z,9.07
2018-06-14T01:02:20.640Z,7.83
2018-06-14T01:04:48.749Z,7.70
2018-06-14T01:07:16.792Z,8.57
2018-06-14T01:09:44.799Z,7.27
2018-06-14T01:12:12.868Z,7.03
2018-06-14T01:14:41.071Z,8.40
2018-06-14T01:17:09.506Z,6.90
2018-06-14T01:19:37.504Z,6.50
2018-06-14T01:22:05.640Z,7.93
2018-06-14T01:24:33.710Z,6.87
2018-06-14T01:27:05.886Z,6.57
2018-06-14T01:29:33.992Z,6.27
2018-06-14T01:32:02.196Z,6.03
2018-06-14T01:34:30.183Z,6.97
2018-06-14T01:36:58.152Z,5.80
2018-06-14T01:39:26.264Z,6.53
2018-06-14T01:41:54.365Z,6.27
2018-06-14T01:44:22.687Z,7.00
2018-06-14T01:46:50.765Z,6.93
2018-06-14T01:49:18.982Z,6.70
2018-06-14T01:51:47.047Z,7.30
2018-06-14T01:54:15.077Z,9.20
2018-06-14T01:56:43.164Z,7.30
2018-06-14T01:59:11.255Z,7.00
2018-06-14T02:01:39.293Z,6.37
2018-06-14T02:04:07.352Z,6.57
2018-06-14T02:06:35.408Z,7.67
2018-06-14T02:09:04.957Z,7.37
2018-06-14T02:11:33.009Z,7.80
2018-06-14T02:14:00.956Z,7.97
2018-06-14T02:16:29.037Z,7.37
2018-06-14T02:18:57.103Z,7.20
2018-06-14T02:21:25.176Z,8.17
2018-06-14T02:23:53.177Z,8.03
2018-06-14T02:26:21.135Z,8.27
2018-06-14T02:28:49.159Z,7.57
2018-06-14T02:31:17.212Z,7.30
2018-06-14T02:33:45.221Z,6.70
2018-06-14T02:36:13.330Z,6.00
2018-06-14T02:38:41.396Z,6.53
2018-06-14T02:41:09.435Z,6.63
2018-06-14T02:43:37.624Z,5.87
2018-06-14T02:46:05.675Z,6.17
2018-06-14T02:48:33.657Z,6.10
2018-06-14T02:51:01.664Z,5.63
2018-06-14T02:53:29.697Z,5.77
2018-06-14T02:55:57.721Z,6.27
2018-06-14T02:58:25.704Z,5.17
2018-06-14T03:00:53.671Z,6.40
2018-06-14T03:03:22.129Z,4.87
2018-06-14T03:05:50.405Z,4.97
2018-06-14T03:08:18.517Z,5.53
2018-06-14T03:10:46.627Z,5.77
2018-06-14T03:13:14.666Z,5.23
2018-06-14T03:15:42.820Z,5.67
2018-06-14T03:18:10.829Z,4.80
2018-06-14T03:20:38.851Z,5.37
2018-06-14T03:23:07.008Z,5.13
2018-06-14T03:25:34.985Z,4.63
2018-06-14T03:28:03.150Z,5.27
2018-06-14T03:30:31.288Z,5.00
2018-06-14T03:32:59.485Z,5.47
2018-06-14T03:35:27.647Z,5.43
2018-06-14T03:37:55.923Z,4.73
2018-06-14T03:40:24.009Z,4.97
2018-06-14T03:42:52.359Z,4.73
2018-06-14T03:45:21.541Z,6.33
2018-06-14T03:47:50.785Z,5.03
2018-06-14T03:50:18.982Z,4.80
2018-06-14T03:52:47.088Z,5.43
2018-06-14T03:55:15.149Z,5.60
2018-06-14T03:57:43.156Z,6.23
2018-06-14T04:00:11.213Z,6.23
2018-06-14T04:02:39.240Z,5.80
2018-06-14T04:05:07.429Z,6.40
2018-06-14T04:07:35.545Z,6.00
2018-06-14T04:10:03.786Z,7.10
2018-06-14T04:12:31.800Z,5.83
2018-06-14T04:14:59.919Z,6.70
2018-06-14T04:17:28.023Z,6.37
2018-06-14T04:19:56.040Z,4.90
2018-06-14T04:22:24.069Z,4.20
2018-06-14T04:24:52.261Z,6.13
2018-06-14T04:27:20.327Z,5.77
2018-06-14T04:29:48.290Z,5.13
2018-06-14T04:32:16.392Z,4.93
2018-06-14T04:34:44.518Z,7.23
2018-06-14T04:37:12.583Z,7.43
2018-06-14T04:39:40.548Z,7.40
2018-06-14T04:42:08.604Z,7.53
2018-06-14T04:44:36.775Z,7.27
2018-06-14T04:47:04.968Z,7.90
2018-06-14T04:49:33.025Z,7.73
2018-06-14T04:52:01.039Z,8.20
2018-06-14T04:54:29.139Z,8.23
2018-06-14T04:56:57.324Z,8.17
2018-06-14T04:59:25.691Z,8.20
2018-06-14T05:01:53.876Z,8.50
2018-06-14T05:04:22.204Z,8.10
2018-06-14T05:06:50.446Z,8.03
2018-06-14T05:09:18.559Z,10.30
2018-06-14T05:11:46.605Z,9.73
2018-06-14T05:14:14.729Z,10.93
2018-06-14T05:16:42.841Z,9.83
2018-06-14T05:19:10.949Z,8.90
2018-06-14T05:21:39.043Z,9.27
2018-06-14T05:24:07.166Z,8.67
2018-06-14T05:26:35.241Z,8.63
2018-06-14T05:29:04.349Z,8.60
2018-06-14T05:31:32.452Z,8.83
2018-06-14T05:34:00.850Z,8.57
2018-06-14T05:36:28.888Z,9.07
2018-06-14T05:38:56.876Z,9.53
2018-06-14T05:41:25.076Z,10.67
2018-06-14T05:43:53.124Z,10.07
2018-06-14T05:46:21.158Z,10.13
2018-06-14T05:48:49.445Z,14.23
2018-06-14T05:51:17.579Z,14.97
2018-06-14T05:53:45.766Z,14.00
2018-06-14T05:56:13.843Z,14.10
2018-06-14T05:58:42.403Z,13.70
2018-06-14T06:01:10.581Z,14.47
2018-06-14T06:03:38.713Z,13.80
2018-06-14T06:06:07.090Z,13.47
2018-06-14T06:08:36.572Z,13.80
2018-06-14T06:11:04.842Z,12.53
2018-06-14T06:13:33.504Z,11.90
2018-06-14T06:16:01.716Z,10.47
2018-06-14T06:18:29.904Z,12.10
2018-06-14T06:20:58.179Z,11.93
2018-06-14T06:23:26.261Z,11.70
2018-06-14T06:25:54.398Z,11.17
2018-06-14T06:28:22.576Z,10.60
2018-06-14T06:30:50.764Z,10.93
2018-06-14T06:33:19.083Z,12.27
2018-06-14T06:35:47.348Z,12.30
2018-06-14T06:38:15.569Z,11.70
2018-06-14T06:40:43.709Z,11.73
2018-06-14T06:43:11.946Z,10.90
2018-06-14T06:45:40.173Z,11.77
2018-06-14T06:48:08.181Z,10.63
2018-06-14T06:50:36.327Z,10.90
2018-06-14T06:53:04.407Z,11.97
2018-06-14T06:55:32.513Z,10.47
2018-06-14T06:58:00.727Z,11.67
2018-06-14T07:00:28.891Z,11.70
2018-06-14T07:02:57.007Z,12.47
2018-06-14T07:05:25.531Z,10.73
2018-06-14T07:07:53.508Z,11.40
2018-06-14T07:10:21.540Z,11.17
2018-06-14T07:12:50.211Z,11.63
2018-06-14T07:15:18.505Z,10.43
2018-06-14T07:17:46.833Z,10.83
2018-06-14T07:20:15.235Z,10.37
2018-06-14T07:22:43.475Z,10.10
2018-06-14T07:25:11.718Z,9.60
2018-06-14T07:27:40.537Z,10.27
2018-06-14T07:30:09.310Z,10.10
2018-06-14T07:32:37.370Z,9.47
2018-06-14T07:35:05.478Z,10.63
2018-06-14T07:37:33.750Z,11.27
2018-06-14T07:40:02.069Z,12.30
2018-06-14T07:42:30.718Z,11.50
2018-06-14T07:44:59.125Z,10.80
2018-06-14T07:47:27.893Z,12.40
2018-06-14T07:49:56.327Z,9.83
2018-06-14T07:52:24.526Z,10.60
2018-06-14T07:54:53.363Z,12.23
2018-06-14T07:57:21.818Z,10.30
2018-06-14T07:59:49.975Z,11.77
2018-06-14T08:02:18.491Z,10.00
2018-06-14T08:04:46.849Z,10.93
2018-06-14T08:07:15.054Z,9.03
2018-06-14T08:09:43.144Z,10.03
2018-06-14T08:12:11.620Z,11.40
2018-06-14T08:14:39.876Z,12.27
2018-06-14T08:17:08.237Z,11.30
2018-06-14T08:19:36.805Z,9.60
2018-06-14T08:22:05.090Z,11.80
2018-06-14T08:24:33.281Z,9.87
2018-06-14T08:27:01.548Z,10.37
2018-06-14T08:29:29.865Z,9.53
2018-06-14T08:31:58.120Z,11.20
2018-06-14T08:34:26.283Z,12.00
2018-06-14T08:37:00.931Z,12.23
2018-06-14T08:39:29.015Z,12.13
2018-06-14T08:41:57.059Z,12.20
2018-06-14T08:44:25.262Z,13.13
2018-06-14T08:46:53.480Z,14.73
2018-06-14T08:49:21.550Z,12.80
2018-06-14T08:51:49.690Z,14.13
2018-06-14T08:54:17.834Z,13.93
2018-06-14T08:56:46.048Z,14.13
2018-06-14T08:59:14.100Z,15.53
2018-06-14T09:01:42.133Z,13.57
2018-06-14T09:04:10.180Z,13.03
2018-06-14T09:06:38.326Z,11.83
2018-06-14T09:09:08.292Z,13.00
2018-06-14T09:11:36.447Z,11.90
2018-06-14T09:14:04.756Z,11.63
2018-06-14T09:16:32.914Z,12.13
2018-06-14T09:19:01.048Z,11.30
2018-06-14T09:21:30.404Z,12.03
2018-06-14T09:23:58.659Z,11.30
2018-06-14T09:26:27.009Z,9.80
2018-06-14T09:28:55.325Z,10.40
2018-06-14T09:31:23.743Z,11.03
2018-06-14T09:33:51.895Z,9.73
2018-06-14T09:36:20.021Z,10.60
2018-06-14T09:38:48.489Z,10.97
2018-06-14T09:41:16.688Z,9.80
2018-06-14T09:43:44.857Z,9.60
2018-06-14T09:46:13.178Z,8.53
2018-06-14T09:48:41.425Z,9.27
2018-06-14T09:51:09.768Z,8.83
2018-06-14T09:53:38.197Z,9.10
2018-06-14T09:56:06.523Z,10.20
2018-06-14T09:58:34.820Z,8.87
2018-06-14T10:01:03.146Z,10.27
2018-06-14T10:03:31.471Z,8.03
2018-06-14T10:06:00.240Z,10.40
2018-06-14T10:08:28.682Z,9.03
2018-06-14T10:10:57.223Z,8.10
2018-06-14T10:13:25.492Z,8.83
2018-06-14T10:15:54.004Z,9.10
2018-06-14T10:18:22.558Z,8.93
2018-06-14T10:20:51.086Z,9.57
2018-06-14T10:23:19.239Z,8.97
2018-06-14T10:25:47.483Z,9.73
2018-06-14T10:28:15.793Z,8.63
2018-06-14T10:30:43.878Z,8.40
2018-06-14T10:33:13.071Z,9.03
2018-06-14T10:35:41.477Z,9.10
2018-06-14T10:38:09.822Z,8.37
2018-06-14T10:40:38.163Z,9.47
2018-06-14T10:43:13.821Z,8.80
2018-06-14T10:45:42.175Z,9.03
2018-06-14T10:48:10.546Z,9.40
2018-06-14T10:50:38.684Z,7.83
2018-06-14T10:53:06.926Z,8.30
2018-06-14T10:55:35.786Z,7.37
2018-06-14T10:58:04.071Z,8.03
2018-06-14T11:00:32.269Z,7.90
2018-06-14T11:03:00.890Z,6.87
2018-06-14T11:05:29.182Z,8.20
2018-06-14T11:07:57.533Z,8.07
2018-06-14T11:10:26.023Z,8.17
2018-06-14T11:12:54.599Z,7.50
2018-06-14T11:15:23.369Z,7.10
2018-06-14T11:17:51.724Z,7.93
2018-06-14T11:20:19.935Z,8.03
2018-06-14T11:22:48.164Z,7.23
2018-06-14T11:25:16.381Z,7.37
2018-06-14T11:27:44.579Z,7.47
2018-06-14T11:30:12.754Z,6.93
2018-06-14T11:32:40.977Z,6.83
2018-06-14T11:35:09.445Z,6.73
2018-06-14T11:37:38.019Z,8.13
2018-06-14T11:40:06.427Z,6.63
2018-06-14T11:42:34.816Z,7.33
2018-06-14T11:45:03.227Z,6.00
2018-06-14T11:47:31.446Z,8.00
2018-06-14T11:49:59.836Z,7.13
2018-06-14T11:52:28.034Z,6.73
2018-06-14T11:54:56.146Z,7.17
2018-06-14T11:57:24.431Z,6.57
2018-06-14T11:59:53.541Z,6.20
2018-06-14T12:02:22.503Z,6.57
2018-06-14T12:04:51.755Z,6.00
2018-06-14T12:07:20.174Z,6.17
2018-06-14T12:09:48.487Z,6.50
2018-06-14T12:12:17.172Z,6.23
2018-06-14T12:14:45.837Z,6.73
2018-06-14T12:17:14.181Z,6.00
2018-06-14T12:19:42.386Z,5.60
2018-06-14T12:22:10.858Z,6.70
2018-06-14T12:24:39.190Z,6.23
2018-06-14T12:27:07.310Z,6.07
2018-06-14T12:29:35.480Z,5.50
2018-06-14T12:32:03.660Z,6.03
2018-06-14T12:34:31.836Z,6.03
2018-06-14T12:36:59.971Z,5.57
2018-06-14T12:39:28.076Z,7.10
2018-06-14T12:41:56.423Z,5.50
2018-06-14T12:44:24.877Z,5.90
2018-06-14T12:46:53.201Z,5.70
2018-06-14T12:49:21.347Z,5.60
2018-06-14T12:51:49.981Z,4.90
2018-06-14T12:54:18.385Z,5.20
2018-06-14T12:56:46.720Z,5.70
2018-06-14T12:59:14.942Z,4.87
2018-06-14T13:01:43.251Z,6.40
2018-06-14T13:04:11.434Z,6.13
2018-06-14T13:06:39.657Z,6.50
2018-06-14T13:09:09.802Z,5.37
2018-06-14T13:11:38.039Z,5.67
2018-06-14T13:14:06.171Z,6.60
2018-06-14T13:16:34.179Z,6.27
2018-06-14T13:19:02.187Z,6.80
2018-06-14T13:21:30.262Z,6.00
2018-06-14T13:23:58.357Z,5.93
2018-06-14T13:26:26.492Z,6.23
2018-06-14T13:28:54.598Z,5.93
2018-06-14T13:31:22.838Z,5.90
2018-06-14T13:33:50.982Z,6.27
2018-06-14T13:36:19.282Z,6.30
2018-06-14T13:38:47.401Z,6.07
2018-06-14T13:41:15.583Z,7.33
2018-06-14T13:43:43.888Z,5.90
2018-06-14T13:46:12.361Z,7.00
2018-06-14T13:48:40.765Z,6.80
2018-06-14T13:51:09.424Z,6.57
2018-06-14T13:53:38.202Z,6.10
2018-06-14T13:56:06.810Z,7.77
2018-06-14T13:58:35.390Z,6.43
2018-06-14T14:01:03.952Z,6.50
2018-06-14T14:03:32.467Z,6.43
2018-06-14T14:06:00.946Z,7.10
2018-06-14T14:08:29.452Z,6.47
2018-06-14T14:10:57.756Z,6.93
2018-06-14T14:13:26.330Z,7.97
2018-06-14T14:15:54.758Z,4.77
2018-06-14T14:18:23.172Z,6.23
2018-06-14T14:20:51.790Z,4.63
2018-06-14T14:23:20.440Z,6.10
2018-06-14T14:25:48.932Z,5.27
2018-06-14T14:28:17.505Z,5.57
2018-06-14T14:30:45.959Z,6.13
2018-06-14T14:33:14.677Z,5.93
2018-06-14T14:35:43.363Z,5.90
2018-06-14T14:38:11.962Z,5.53
2018-06-14T14:40:40.430Z,5.63
2018-06-14T14:43:09.011Z,4.90
2018-06-14T14:45:37.561Z,6.70
2018-06-14T14:48:05.987Z,5.47
2018-06-14T14:50:34.790Z,5.23
2018-06-14T14:53:03.363Z,5.33
2018-06-14T14:55:31.963Z,5.47
2018-06-14T14:58:00.581Z,5.63
2018-06-14T15:00:29.116Z,5.60
2018-06-14T15:02:57.767Z,5.77
2018-06-14T15:05:26.450Z,5.87
2018-06-14T15:07:55.024Z,5.53
2018-06-14T15:10:23.696Z,5.73
2018-06-14T15:12:52.180Z,5.87
2018-06-14T15:15:20.891Z,7.43
2018-06-14T15:17:49.741Z,5.53
2018-06-14T15:20:18.186Z,5.57
2018-06-14T15:22:47.677Z,5.70
2018-06-14T15:25:16.356Z,5.77
2018-06-14T15:27:45.034Z,5.77
2018-06-14T15:30:13.977Z,5.87
2018-06-14T15:32:42.765Z,6.10
2018-06-14T15:35:11.488Z,6.17
2018-06-14T15:37:40.172Z,6.87
2018-06-14T15:40:08.767Z,5.20
2018-06-14T15:42:38.307Z,6.23
2018-06-14T15:45:07.077Z,6.50
2018-06-14T15:47:36.186Z,6.67
2018-06-14T15:50:05.067Z,5.70
2018-06-14T15:52:33.885Z,5.50
2018-06-14T15:55:13.385Z,4.73
2018-06-14T15:57:41.904Z,4.37
2018-06-14T16:00:10.605Z,5.50
2018-06-14T16:02:39.147Z,4.30
2018-06-14T16:05:07.779Z,5.00
2018-06-14T16:07:36.631Z,4.93
2018-06-14T16:10:05.428Z,4.93
2018-06-14T16:12:33.988Z,4.60
2018-06-14T16:15:03.035Z,4.77
2018-06-14T16:17:31.930Z,4.80
2018-06-14T16:20:00.931Z,4.37
2018-06-14T16:22:29.208Z,4.97
2018-06-14T16:24:57.693Z,4.70
2018-06-14T16:27:26.026Z,5.27
2018-06-14T16:29:54.485Z,4.97
2018-06-14T16:32:23.024Z,4.93
2018-06-14T16:34:51.541Z,5.07
2018-06-14T16:37:20.011Z,5.47
2018-06-14T16:39:48.505Z,4.97
2018-06-14T16:42:16.956Z,4.80
2018-06-14T16:44:45.484Z,5.07
2018-06-14T16:47:13.679Z,6.00
2018-06-14T16:49:42.073Z,5.47
2018-06-14T16:52:10.380Z,8.33
2018-06-14T16:54:38.703Z,7.63
2018-06-14T16:57:06.916Z,6.60
2018-06-14T16:59:35.107Z,7.90
2018-06-14T17:02:03.348Z,7.00
2018-06-14T17:04:31.644Z,6.37
2018-06-14T17:07:00.138Z,7.27
2018-06-14T17:09:28.664Z,6.63
2018-06-14T17:11:56.851Z,6.77
2018-06-14T17:14:25.215Z,6.27
2018-06-14T17:16:53.554Z,7.10
2018-06-14T17:19:21.795Z,6.90
2018-06-14T17:21:50.116Z,6.40
2018-06-14T17:24:18.282Z,7.53
2018-06-14T17:26:46.631Z,7.13
2018-06-14T17:29:15.166Z,7.57
2018-06-14T17:31:43.702Z,6.77
2018-06-14T17:34:12.167Z,6.23
2018-06-14T17:36:40.388Z,7.23
2018-06-14T17:39:08.648Z,7.97
2018-06-14T17:41:36.985Z,7.90
2018-06-14T17:44:05.032Z,6.93
2018-06-14T17:46:33.097Z,7.27
2018-06-14T17:49:01.238Z,8.63
2018-06-14T17:51:29.352Z,8.10
2018-06-14T17:53:57.687Z,7.10
2018-06-14T17:56:25.791Z,7.47
2018-06-14T17:58:53.831Z,7.40
2018-06-14T18:01:21.862Z,8.57
2018-06-14T18:03:49.941Z,6.97
2018-06-14T18:06:18.303Z,6.47
2018-06-14T18:08:46.330Z,7.53
2018-06-14T18:11:14.353Z,7.53
2018-06-14T18:13:42.526Z,7.20
2018-06-14T18:16:10.999Z,7.43
2018-06-14T18:18:39.423Z,6.73
2018-06-14T18:21:07.674Z,7.83
2018-06-14T18:23:35.765Z,7.00
2018-06-14T18:26:03.897Z,7.37
2018-06-14T18:28:32.167Z,7.30
2018-06-14T18:31:00.478Z,6.67
2018-06-14T18:33:28.978Z,6.70
2018-06-14T18:35:57.214Z,7.20
2018-06-14T18:38:25.622Z,6.83
2018-06-14T18:40:53.819Z,6.50
2018-06-14T18:43:21.882Z,6.00
2018-06-14T18:45:50.151Z,7.13
2018-06-14T18:48:18.319Z,7.33
2018-06-14T18:50:46.494Z,6.43
2018-06-14T18:53:14.648Z,6.63
2018-06-14T18:55:42.814Z,6.53
2018-06-14T18:58:10.956Z,6.30
2018-06-14T19:00:39.159Z,6.43
2018-06-14T19:03:07.265Z,6.40
2018-06-14T19:05:35.613Z,6.30
2018-06-14T19:08:03.863Z,6.10
2018-06-14T19:10:32.210Z,6.17
2018-06-14T19:13:00.488Z,6.03
2018-06-14T19:15:28.712Z,6.67
2018-06-14T19:17:56.929Z,6.27
2018-06-14T19:20:25.644Z,6.73
2018-06-14T19:22:53.774Z,6.03
2018-06-14T19:25:22.105Z,6.60
2018-06-14T19:27:50.491Z,6.70
2018-06-14T19:30:18.762Z,6.50
2018-06-14T19:32:46.891Z,5.97
2018-06-14T19:35:14.936Z,5.73
2018-06-14T19:37:42.935Z,5.80
2018-06-14T19:40:11.117Z,5.97
2018-06-14T19:42:39.272Z,6.57
2018-06-14T19:45:07.384Z,7.70
2018-06-14T19:47:35.578Z,6.00
2018-06-14T19:50:03.750Z,5.80
2018-06-14T19:52:31.931Z,5.80
2018-06-14T19:54:59.998Z,6.23
2018-06-14T19:57:28.015Z,5.67
2018-06-14T19:59:56.298Z,5.70
2018-06-14T20:02:24.603Z,6.10
2018-06-14T20:04:52.827Z,4.73
2018-06-14T20:07:20.961Z,5.90
2018-06-14T20:09:49.221Z,5.10
2018-06-14T20:12:17.488Z,5.40
2018-06-14T20:14:45.704Z,5.23
2018-06-14T20:17:13.766Z,5.83
2018-06-14T20:19:41.944Z,6.60
2018-06-14T20:22:10.041Z,6.23
2018-06-14T20:24:38.159Z,5.77
2018-06-14T20:27:06.209Z,5.43
2018-06-14T20:29:34.225Z,5.30
2018-06-14T20:32:02.416Z,5.67
2018-06-14T20:34:30.478Z,5.70
2018-06-14T20:36:58.522Z,6.90
2018-06-14T20:39:26.616Z,5.70
2018-06-14T20:41:54.752Z,5.63
2018-06-14T20:44:22.794Z,5.60
2018-06-14T20:46:51.312Z,5.40
2018-06-14T20:49:19.728Z,5.57
2018-06-14T20:51:47.987Z,5.63
2018-06-14T20:54:16.179Z,6.17
2018-06-14T20:56:44.478Z,5.67
2018-06-14T20:59:12.746Z,6.40
2018-06-14T21:01:40.802Z,5.93
2018-06-14T21:04:09.030Z,6.10
2018-06-14T21:06:37.307Z,5.73
2018-06-14T21:09:08.141Z,6.07
2018-06-14T21:11:36.230Z,5.63
2018-06-14T21:14:04.393Z,6.40
2018-06-14T21:16:32.613Z,6.53
2018-06-14T21:19:00.692Z,5.70
2018-06-14T21:21:28.901Z,6.10
2018-06-14T21:23:57.111Z,6.13
2018-06-14T21:26:25.264Z,5.20
2018-06-14T21:28:53.539Z,6.07
2018-06-14T21:31:21.618Z,5.77
2018-06-14T21:33:49.822Z,5.17
2018-06-14T21:36:18.008Z,5.47
2018-06-14T21:38:46.115Z,5.07
2018-06-14T21:41:14.122Z,6.13
2018-06-14T21:43:42.173Z,6.10
2018-06-14T21:46:10.258Z,5.20
2018-06-14T21:48:38.220Z,5.73
2018-06-14T21:51:06.330Z,5.90
2018-06-14T21:53:34.384Z,5.70
2018-06-14T21:56:02.535Z,6.00
2018-06-14T21:58:30.582Z,5.83
2018-06-14T22:00:58.661Z,5.40
2018-06-14T22:03:32.165Z,6.03
2018-06-14T22:06:00.627Z,5.83
2018-06-14T22:08:29.178Z,6.03
2018-06-14T22:10:57.319Z,5.03
2018-06-14T22:13:25.440Z,5.80
2018-06-14T22:15:53.502Z,5.33
2018-06-14T22:18:21.594Z,4.87
2018-06-14T22:20:49.608Z,5.80
2018-06-14T22:23:17.633Z,5.50
2018-06-14T22:25:45.832Z,5.57
2018-06-14T22:28:14.049Z,5.40
2018-06-14T22:30:42.057Z,5.47
2018-06-14T22:33:21.091Z,4.87
2018-06-14T22:35:49.218Z,5.97
2018-06-14T22:38:17.294Z,5.73
2018-06-14T22:40:45.275Z,6.00
2018-06-14T22:43:13.332Z,7.90
2018-06-14T22:45:41.424Z,5.57
2018-06-14T22:48:09.516Z,5.43
2018-06-14T22:51:21.588Z,5.80
2018-06-14T22:53:49.583Z,6.53
2018-06-14T22:56:17.633Z,6.07
2018-06-14T22:58:45.784Z,5.80
2018-06-14T23:01:31.399Z,5.60
2018-06-14T23:04:00.279Z,5.70
2018-06-14T23:06:28.381Z,5.50
2018-06-14T23:08:56.941Z,6.27
2018-06-14T23:11:25.199Z,5.27
2018-06-14T23:13:53.526Z,6.07
2018-06-14T23:16:21.932Z,7.07
2018-06-14T23:18:50.163Z,5.97
2018-06-14T23:21:18.300Z,6.30
2018-06-14T23:23:46.390Z,5.43
2018-06-14T23:26:14.433Z,6.10
2018-06-14T23:28:42.501Z,6.20
2018-06-14T23:31:10.638Z,7.17
2018-06-14T23:33:38.637Z,5.27
2018-06-14T23:36:06.790Z,6.30
2018-06-14T23:38:34.823Z,6.03
2018-06-14T23:41:02.781Z,5.70
2018-06-14T23:43:30.836Z,6.93
2018-06-14T23:45:58.843Z,6.13
2018-06-14T23:48:26.915Z,8.17
2018-06-14T23:50:54.885Z,6.20
2018-06-14T23:53:22.899Z,6.60
2018-06-14T23:55:50.965Z,5.83
2018-06-14T23:58:19.175Z,6.17
